sensor_id;sensor_type;location;lat;lon;timestamp;P1;durP1;ratioP1;P2;durP2;ratioP2
67640;SDS011;54434;50.096;20.082;2022-10-15T00:01:13;52.80;;;31.10;;
67640;SDS011;54434;50.096;20.082;2022-10-15T00:03:50;59.30;;;32.30;;
67640;SDS011;54434;50.096;20.082;2022-10-15T00:06:26;56.30;;;30.80;;
67640;SDS011;54434;50.096;20.082;2022-10-15T00:09:02;51.50;;;29.40;;
67640;SDS011;54434;50.096;20.082;2022-10-15T00:11:39;50.80;;;29.80;;
67640;SDS011;54434;50.096;20.082;2022-10-15T00:14:15;44.20;;;27.10;;
67640;SDS011;54434;50.096;20.082;2022-10-15T00:16:52;49.70;;;28.70;;
67640;SDS011;54434;50.096;20.082;2022-10-15T00:19:28;53.70;;;29.70;;
67640;SDS011;54434;50.096;20.082;2022-10-15T00:22:04;49.40;;;28.40;;
67640;SDS011;54434;50.096;20.082;2022-10-15T00:24:40;45.20;;;27.50;;
67640;SDS011;54434;50.096;20.082;2022-10-15T00:27:16;45.20;;;27.40;;
67640;SDS011;54434;50.096;20.082;2022-10-15T00:29:52;42.50;;;26.20;;
67640;SDS011;54434;50.096;20.082;2022-10-15T00:32:30;51.30;;;28.50;;
67640;SDS011;54434;50.096;20.082;2022-10-15T00:35:08;52.20;;;27.70;;
67640;SDS011;54434;50.096;20.082;2022-10-15T00:37:44;46.50;;;26.00;;
67640;SDS011;54434;50.096;20.082;2022-10-15T00:40:21;47.40;;;27.50;;
67640;SDS011;54434;50.096;20.082;2022-10-15T00:42:58;44.80;;;27.40;;
67640;SDS011;54434;50.096;20.082;2022-10-15T00:45:34;44.30;;;26.50;;
67640;SDS011;54434;50.096;20.082;2022-10-15T00:48:10;43.90;;;25.70;;
67640;SDS011;54434;50.096;20.082;2022-10-15T00:50:46;46.30;;;26.70;;
67640;SDS011;54434;50.096;20.082;2022-10-15T00:53:22;44.60;;;27.60;;
67640;SDS011;54434;50.096;20.082;2022-10-15T00:55:59;49.80;;;27.00;;
67640;SDS011;54434;50.096;20.082;2022-10-15T00:58:36;45.80;;;27.70;;
67640;SDS011;54434;50.096;20.082;2022-10-15T01:01:12;50.90;;;29.30;;
67640;SDS011;54434;50.096;20.082;2022-10-15T01:03:49;48.90;;;29.70;;
67640;SDS011;54434;50.096;20.082;2022-10-15T01:06:26;49.10;;;27.10;;
67640;SDS011;54434;50.096;20.082;2022-10-15T01:09:04;48.70;;;28.00;;
67640;SDS011;54434;50.096;20.082;2022-10-15T01:11:43;48.00;;;28.70;;
67640;SDS011;54434;50.096;20.082;2022-10-15T01:14:38;50.50;;;29.80;;
67640;SDS011;54434;50.096;20.082;2022-10-15T01:17:26;53.90;;;29.60;;
67640;SDS011;54434;50.096;20.082;2022-10-15T01:20:33;50.10;;;28.30;;
67640;SDS011;54434;50.096;20.082;2022-10-15T01:27:23;43.80;;;26.70;;
67640;SDS011;54434;50.096;20.082;2022-10-15T01:30:29;47.80;;;27.40;;
67640;SDS011;54434;50.096;20.082;2022-10-15T01:33:28;44.10;;;25.90;;
67640;SDS011;54434;50.096;20.082;2022-10-15T01:36:16;47.00;;;26.40;;
67640;SDS011;54434;50.096;20.082;2022-10-15T01:39:00;47.50;;;27.20;;
67640;SDS011;54434;50.096;20.082;2022-10-15T01:41:48;42.60;;;26.30;;
67640;SDS011;54434;50.096;20.082;2022-10-15T01:44:32;47.00;;;27.60;;
67640;SDS011;54434;50.096;20.082;2022-10-15T01:47:31;44.70;;;27.40;;
67640;SDS011;54434;50.096;20.082;2022-10-15T01:50:12;48.50;;;27.40;;
67640;SDS011;54434;50.096;20.082;2022-10-15T01:52:51;43.50;;;25.70;;
67640;SDS011;54434;50.096;20.082;2022-10-15T01:55:30;47.00;;;25.90;;
67640;SDS011;54434;50.096;20.082;2022-10-15T01:58:12;47.70;;;26.50;;
67640;SDS011;54434;50.096;20.082;2022-10-15T02:00:52;39.60;;;24.40;;
67640;SDS011;54434;50.096;20.082;2022-10-15T02:03:29;41.50;;;25.40;;
67640;SDS011;54434;50.096;20.082;2022-10-15T02:06:09;45.70;;;27.10;;
67640;SDS011;54434;50.096;20.082;2022-10-15T02:08:59;45.30;;;26.70;;
67640;SDS011;54434;50.096;20.082;2022-10-15T02:11:53;44.70;;;25.90;;
67640;SDS011;54434;50.096;20.082;2022-10-15T02:14:52;41.20;;;24.40;;
67640;SDS011;54434;50.096;20.082;2022-10-15T02:17:37;45.40;;;24.30;;
67640;SDS011;54434;50.096;20.082;2022-10-15T02:20:21;44.30;;;25.10;;
67640;SDS011;54434;50.096;20.082;2022-10-15T02:23:07;45.20;;;25.70;;
67640;SDS011;54434;50.096;20.082;2022-10-15T02:25:47;45.40;;;25.30;;
67640;SDS011;54434;50.096;20.082;2022-10-15T02:28:26;45.80;;;25.20;;
67640;SDS011;54434;50.096;20.082;2022-10-15T02:31:10;45.80;;;26.20;;
67640;SDS011;54434;50.096;20.082;2022-10-15T02:33:49;44.40;;;26.10;;
67640;SDS011;54434;50.096;20.082;2022-10-15T02:36:29;43.70;;;24.10;;
67640;SDS011;54434;50.096;20.082;2022-10-15T02:39:10;41.00;;;24.80;;
67640;SDS011;54434;50.096;20.082;2022-10-15T02:41:49;41.50;;;25.30;;
67640;SDS011;54434;50.096;20.082;2022-10-15T02:44:26;40.30;;;23.80;;
67640;SDS011;54434;50.096;20.082;2022-10-15T02:47:02;43.70;;;25.20;;
67640;SDS011;54434;50.096;20.082;2022-10-15T02:49:38;44.50;;;24.30;;
67640;SDS011;54434;50.096;20.082;2022-10-15T02:52:15;44.70;;;25.80;;
67640;SDS011;54434;50.096;20.082;2022-10-15T02:54:51;40.60;;;24.50;;
67640;SDS011;54434;50.096;20.082;2022-10-15T02:57:27;43.20;;;25.00;;
67640;SDS011;54434;50.096;20.082;2022-10-15T03:00:07;42.70;;;24.90;;
67640;SDS011;54434;50.096;20.082;2022-10-15T03:02:44;43.60;;;25.30;;
67640;SDS011;54434;50.096;20.082;2022-10-15T03:05:21;37.80;;;24.40;;
67640;SDS011;54434;50.096;20.082;2022-10-15T03:07:59;45.00;;;25.20;;
67640;SDS011;54434;50.096;20.082;2022-10-15T03:10:35;39.20;;;23.80;;
67640;SDS011;54434;50.096;20.082;2022-10-15T03:13:11;43.00;;;26.30;;
67640;SDS011;54434;50.096;20.082;2022-10-15T03:15:52;44.30;;;25.60;;
67640;SDS011;54434;50.096;20.082;2022-10-15T03:18:28;45.90;;;25.40;;
67640;SDS011;54434;50.096;20.082;2022-10-15T03:21:10;42.60;;;24.10;;
67640;SDS011;54434;50.096;20.082;2022-10-15T03:23:47;47.90;;;25.00;;
67640;SDS011;54434;50.096;20.082;2022-10-15T03:26:25;46.70;;;25.20;;
67640;SDS011;54434;50.096;20.082;2022-10-15T03:29:01;45.70;;;25.10;;
67640;SDS011;54434;50.096;20.082;2022-10-15T03:31:45;47.60;;;26.10;;
67640;SDS011;54434;50.096;20.082;2022-10-15T03:34:22;43.90;;;25.40;;
67640;SDS011;54434;50.096;20.082;2022-10-15T03:36:58;47.80;;;25.20;;
67640;SDS011;54434;50.096;20.082;2022-10-15T03:39:34;45.90;;;25.00;;
67640;SDS011;54434;50.096;20.082;2022-10-15T03:42:11;42.20;;;23.70;;
67640;SDS011;54434;50.096;20.082;2022-10-15T03:44:49;44.60;;;24.70;;
67640;SDS011;54434;50.096;20.082;2022-10-15T03:47:25;43.40;;;24.60;;
67640;SDS011;54434;50.096;20.082;2022-10-15T03:50:01;42.10;;;22.70;;
67640;SDS011;54434;50.096;20.082;2022-10-15T03:52:41;41.30;;;23.10;;
67640;SDS011;54434;50.096;20.082;2022-10-15T03:55:18;42.60;;;23.80;;
67640;SDS011;54434;50.096;20.082;2022-10-15T03:57:54;45.00;;;23.90;;
67640;SDS011;54434;50.096;20.082;2022-10-15T04:00:30;52.50;;;30.90;;
67640;SDS011;54434;50.096;20.082;2022-10-15T04:03:06;63.80;;;36.20;;
67640;SDS011;54434;50.096;20.082;2022-10-15T04:05:42;71.60;;;43.60;;
67640;SDS011;54434;50.096;20.082;2022-10-15T04:08:28;72.40;;;41.10;;
67640;SDS011;54434;50.096;20.082;2022-10-15T04:11:06;59.60;;;35.60;;
67640;SDS011;54434;50.096;20.082;2022-10-15T04:13:42;49.80;;;26.10;;
67640;SDS011;54434;50.096;20.082;2022-10-15T04:16:21;47.00;;;27.20;;
67640;SDS011;54434;50.096;20.082;2022-10-15T04:18:57;44.20;;;27.30;;
67640;SDS011;54434;50.096;20.082;2022-10-15T04:21:32;40.90;;;24.10;;
67640;SDS011;54434;50.096;20.082;2022-10-15T04:24:09;41.70;;;26.90;;
67640;SDS011;54434;50.096;20.082;2022-10-15T04:26:46;45.00;;;23.50;;
67640;SDS011;54434;50.096;20.082;2022-10-15T04:29:22;87.50;;;44.80;;
67640;SDS011;54434;50.096;20.082;2022-10-15T04:31:58;42.30;;;25.50;;
67640;SDS011;54434;50.096;20.082;2022-10-15T04:34:34;37.00;;;24.40;;
67640;SDS011;54434;50.096;20.082;2022-10-15T04:37:11;38.30;;;23.40;;
67640;SDS011;54434;50.096;20.082;2022-10-15T04:39:48;35.40;;;21.70;;
67640;SDS011;54434;50.096;20.082;2022-10-15T04:42:24;36.30;;;21.20;;
67640;SDS011;54434;50.096;20.082;2022-10-15T04:45:01;46.20;;;25.60;;
67640;SDS011;54434;50.096;20.082;2022-10-15T04:47:38;71.10;;;37.70;;
67640;SDS011;54434;50.096;20.082;2022-10-15T04:50:17;37.50;;;21.60;;
67640;SDS011;54434;50.096;20.082;2022-10-15T04:53:12;35.40;;;20.40;;
67640;SDS011;54434;50.096;20.082;2022-10-15T04:55:48;28.80;;;18.70;;
67640;SDS011;54434;50.096;20.082;2022-10-15T04:58:24;30.70;;;19.10;;
67640;SDS011;54434;50.096;20.082;2022-10-15T05:01:07;31.80;;;19.40;;
67640;SDS011;54434;50.096;20.082;2022-10-15T05:04:27;200.00;;;97.90;;
67640;SDS011;54434;50.096;20.082;2022-10-15T05:07:04;65.70;;;33.20;;
67640;SDS011;54434;50.096;20.082;2022-10-15T05:09:40;34.10;;;20.40;;
67640;SDS011;54434;50.096;20.082;2022-10-15T05:12:19;29.40;;;17.80;;
67640;SDS011;54434;50.096;20.082;2022-10-15T05:14:54;29.40;;;17.90;;
67640;SDS011;54434;50.096;20.082;2022-10-15T05:17:32;33.60;;;18.70;;
67640;SDS011;54434;50.096;20.082;2022-10-15T05:20:11;36.70;;;19.30;;
67640;SDS011;54434;50.096;20.082;2022-10-15T05:22:47;39.80;;;22.90;;
67640;SDS011;54434;50.096;20.082;2022-10-15T05:25:22;49.00;;;27.40;;
67640;SDS011;54434;50.096;20.082;2022-10-15T05:27:59;41.20;;;23.10;;
67640;SDS011;54434;50.096;20.082;2022-10-15T05:30:36;32.20;;;18.80;;
67640;SDS011;54434;50.096;20.082;2022-10-15T05:33:12;32.10;;;18.60;;
67640;SDS011;54434;50.096;20.082;2022-10-15T05:35:47;31.70;;;18.20;;
67640;SDS011;54434;50.096;20.082;2022-10-15T05:38:26;33.40;;;18.50;;
67640;SDS011;54434;50.096;20.082;2022-10-15T05:41:02;29.30;;;17.50;;
67640;SDS011;54434;50.096;20.082;2022-10-15T05:43:38;33.60;;;20.40;;
67640;SDS011;54434;50.096;20.082;2022-10-15T05:46:20;32.20;;;19.70;;
67640;SDS011;54434;50.096;20.082;2022-10-15T05:48:57;35.10;;;18.80;;
67640;SDS011;54434;50.096;20.082;2022-10-15T05:51:34;32.60;;;19.60;;
67640;SDS011;54434;50.096;20.082;2022-10-15T05:54:14;43.00;;;21.30;;
67640;SDS011;54434;50.096;20.082;2022-10-15T05:56:50;40.60;;;20.50;;
67640;SDS011;54434;50.096;20.082;2022-10-15T05:59:26;39.80;;;20.60;;
67640;SDS011;54434;50.096;20.082;2022-10-15T06:02:02;34.20;;;19.00;;
67640;SDS011;54434;50.096;20.082;2022-10-15T06:04:38;69.90;;;36.10;;
67640;SDS011;54434;50.096;20.082;2022-10-15T06:07:14;48.20;;;25.10;;
67640;SDS011;54434;50.096;20.082;2022-10-15T06:09:50;55.90;;;29.60;;
67640;SDS011;54434;50.096;20.082;2022-10-15T06:12:29;56.70;;;33.80;;
67640;SDS011;54434;50.096;20.082;2022-10-15T06:15:06;67.70;;;35.70;;
67640;SDS011;54434;50.096;20.082;2022-10-15T06:17:43;81.80;;;35.80;;
67640;SDS011;54434;50.096;20.082;2022-10-15T06:20:19;74.20;;;33.40;;
67640;SDS011;54434;50.096;20.082;2022-10-15T06:23:01;90.60;;;35.30;;
67640;SDS011;54434;50.096;20.082;2022-10-15T06:25:38;89.00;;;34.70;;
67640;SDS011;54434;50.096;20.082;2022-10-15T06:28:14;86.40;;;34.10;;
67640;SDS011;54434;50.096;20.082;2022-10-15T06:30:50;93.90;;;34.10;;
67640;SDS011;54434;50.096;20.082;2022-10-15T06:33:25;92.10;;;36.40;;
67640;SDS011;54434;50.096;20.082;2022-10-15T06:36:05;84.00;;;34.30;;
67640;SDS011;54434;50.096;20.082;2022-10-15T06:38:43;86.60;;;33.10;;
67640;SDS011;54434;50.096;20.082;2022-10-15T06:41:19;89.80;;;33.00;;
67640;SDS011;54434;50.096;20.082;2022-10-15T06:43:55;65.00;;;28.00;;
67640;SDS011;54434;50.096;20.082;2022-10-15T06:46:31;65.00;;;26.10;;
67640;SDS011;54434;50.096;20.082;2022-10-15T06:49:07;62.30;;;25.30;;
67640;SDS011;54434;50.096;20.082;2022-10-15T06:51:44;69.50;;;26.60;;
67640;SDS011;54434;50.096;20.082;2022-10-15T06:54:20;64.80;;;24.80;;
67640;SDS011;54434;50.096;20.082;2022-10-15T06:56:57;63.00;;;26.10;;
67640;SDS011;54434;50.096;20.082;2022-10-15T06:59:33;68.70;;;29.30;;
67640;SDS011;54434;50.096;20.082;2022-10-15T07:02:13;67.90;;;30.00;;
67640;SDS011;54434;50.096;20.082;2022-10-15T07:04:49;74.70;;;30.00;;
67640;SDS011;54434;50.096;20.082;2022-10-15T07:07:27;49.40;;;23.00;;
67640;SDS011;54434;50.096;20.082;2022-10-15T07:10:04;43.40;;;20.70;;
67640;SDS011;54434;50.096;20.082;2022-10-15T07:12:45;48.60;;;22.20;;
67640;SDS011;54434;50.096;20.082;2022-10-15T07:15:21;43.70;;;20.90;;
67640;SDS011;54434;50.096;20.082;2022-10-15T07:17:57;29.50;;;16.50;;
67640;SDS011;54434;50.096;20.082;2022-10-15T07:20:34;28.80;;;14.70;;
67640;SDS011;54434;50.096;20.082;2022-10-15T07:23:10;23.70;;;13.30;;
67640;SDS011;54434;50.096;20.082;2022-10-15T07:25:46;20.80;;;12.80;;
67640;SDS011;54434;50.096;20.082;2022-10-15T07:28:22;18.80;;;12.20;;
67640;SDS011;54434;50.096;20.082;2022-10-15T07:31:02;21.00;;;11.20;;
67640;SDS011;54434;50.096;20.082;2022-10-15T07:33:40;20.90;;;11.90;;
67640;SDS011;54434;50.096;20.082;2022-10-15T07:36:16;19.60;;;12.60;;
67640;SDS011;54434;50.096;20.082;2022-10-15T07:38:53;22.50;;;12.60;;
67640;SDS011;54434;50.096;20.082;2022-10-15T07:41:30;21.40;;;12.20;;
67640;SDS011;54434;50.096;20.082;2022-10-15T07:44:07;21.50;;;12.10;;
67640;SDS011;54434;50.096;20.082;2022-10-15T07:46:42;16.20;;;10.50;;
67640;SDS011;54434;50.096;20.082;2022-10-15T07:49:19;17.70;;;11.00;;
67640;SDS011;54434;50.096;20.082;2022-10-15T07:51:55;17.20;;;10.50;;
67640;SDS011;54434;50.096;20.082;2022-10-15T07:54:34;16.80;;;10.50;;
67640;SDS011;54434;50.096;20.082;2022-10-15T07:57:10;15.00;;;10.70;;
67640;SDS011;54434;50.096;20.082;2022-10-15T07:59:46;20.50;;;12.00;;
67640;SDS011;54434;50.096;20.082;2022-10-15T08:02:22;17.80;;;10.70;;
67640;SDS011;54434;50.096;20.082;2022-10-15T08:04:58;18.30;;;11.30;;
67640;SDS011;54434;50.096;20.082;2022-10-15T08:07:34;17.00;;;11.10;;
67640;SDS011;54434;50.096;20.082;2022-10-15T08:10:16;18.80;;;10.60;;
67640;SDS011;54434;50.096;20.082;2022-10-15T08:12:52;20.20;;;12.10;;
67640;SDS011;54434;50.096;20.082;2022-10-15T08:15:28;14.80;;;10.10;;
67640;SDS011;54434;50.096;20.082;2022-10-15T08:18:04;16.40;;;10.60;;
67640;SDS011;54434;50.096;20.082;2022-10-15T08:20:41;16.40;;;9.80;;
67640;SDS011;54434;50.096;20.082;2022-10-15T08:23:18;15.50;;;10.40;;
67640;SDS011;54434;50.096;20.082;2022-10-15T08:25:55;14.60;;;10.10;;
67640;SDS011;54434;50.096;20.082;2022-10-15T08:28:33;16.70;;;10.50;;
67640;SDS011;54434;50.096;20.082;2022-10-15T08:31:10;18.60;;;10.90;;
67640;SDS011;54434;50.096;20.082;2022-10-15T08:33:46;15.00;;;10.00;;
67640;SDS011;54434;50.096;20.082;2022-10-15T08:36:23;16.30;;;10.20;;
67640;SDS011;54434;50.096;20.082;2022-10-15T08:38:59;17.90;;;11.40;;
67640;SDS011;54434;50.096;20.082;2022-10-15T08:41:38;26.80;;;12.20;;
67640;SDS011;54434;50.096;20.082;2022-10-15T08:44:23;20.10;;;12.10;;
67640;SDS011;54434;50.096;20.082;2022-10-15T08:47:07;17.80;;;11.20;;
67640;SDS011;54434;50.096;20.082;2022-10-15T08:49:52;16.70;;;10.90;;
67640;SDS011;54434;50.096;20.082;2022-10-15T08:52:42;19.20;;;11.90;;
67640;SDS011;54434;50.096;20.082;2022-10-15T08:55:21;18.50;;;12.20;;
67640;SDS011;54434;50.096;20.082;2022-10-15T08:58:02;19.50;;;11.80;;
67640;SDS011;54434;50.096;20.082;2022-10-15T09:00:51;18.30;;;11.00;;
67640;SDS011;54434;50.096;20.082;2022-10-15T09:03:42;21.70;;;13.40;;
67640;SDS011;54434;50.096;20.082;2022-10-15T09:06:29;20.30;;;11.90;;
67640;SDS011;54434;50.096;20.082;2022-10-15T09:09:16;17.90;;;11.60;;
67640;SDS011;54434;50.096;20.082;2022-10-15T09:12:06;17.80;;;11.70;;
67640;SDS011;54434;50.096;20.082;2022-10-15T09:14:55;24.90;;;14.00;;
67640;SDS011;54434;50.096;20.082;2022-10-15T09:17:34;26.50;;;14.20;;
67640;SDS011;54434;50.096;20.082;2022-10-15T09:20:18;27.30;;;14.80;;
67640;SDS011;54434;50.096;20.082;2022-10-15T09:22:59;28.60;;;14.70;;
67640;SDS011;54434;50.096;20.082;2022-10-15T09:25:38;20.90;;;12.90;;
67640;SDS011;54434;50.096;20.082;2022-10-15T09:28:23;28.60;;;15.30;;
67640;SDS011;54434;50.096;20.082;2022-10-15T09:31:03;34.50;;;16.10;;
67640;SDS011;54434;50.096;20.082;2022-10-15T09:33:46;22.90;;;12.70;;
67640;SDS011;54434;50.096;20.082;2022-10-15T09:36:38;21.60;;;12.30;;
67640;SDS011;54434;50.096;20.082;2022-10-15T09:39:42;20.50;;;10.70;;
67640;SDS011;54434;50.096;20.082;2022-10-15T09:42:35;17.30;;;10.50;;
67640;SDS011;54434;50.096;20.082;2022-10-15T09:45:18;16.40;;;10.70;;
67640;SDS011;54434;50.096;20.082;2022-10-15T09:47:59;14.70;;;10.60;;
67640;SDS011;54434;50.096;20.082;2022-10-15T09:50:45;17.50;;;11.50;;
67640;SDS011;54434;50.096;20.082;2022-10-15T09:53:43;15.60;;;10.00;;
67640;SDS011;54434;50.096;20.082;2022-10-15T09:56:27;12.10;;;8.50;;
67640;SDS011;54434;50.096;20.082;2022-10-15T09:59:16;12.60;;;8.60;;
67640;SDS011;54434;50.096;20.082;2022-10-15T10:02:02;16.40;;;8.70;;
67640;SDS011;54434;50.096;20.082;2022-10-15T10:04:51;15.50;;;9.00;;
67640;SDS011;54434;50.096;20.082;2022-10-15T10:07:33;14.00;;;8.80;;
67640;SDS011;54434;50.096;20.082;2022-10-15T10:10:25;13.60;;;8.70;;
67640;SDS011;54434;50.096;20.082;2022-10-15T10:13:06;14.70;;;8.40;;
67640;SDS011;54434;50.096;20.082;2022-10-15T10:15:53;13.20;;;9.00;;
67640;SDS011;54434;50.096;20.082;2022-10-15T10:18:35;13.50;;;8.90;;
67640;SDS011;54434;50.096;20.082;2022-10-15T10:21:24;14.60;;;9.00;;
67640;SDS011;54434;50.096;20.082;2022-10-15T10:24:26;13.20;;;8.80;;
67640;SDS011;54434;50.096;20.082;2022-10-15T10:27:11;13.70;;;8.90;;
67640;SDS011;54434;50.096;20.082;2022-10-15T10:29:58;14.30;;;9.20;;
67640;SDS011;54434;50.096;20.082;2022-10-15T10:32:35;11.30;;;8.10;;
67640;SDS011;54434;50.096;20.082;2022-10-15T10:35:22;13.40;;;7.70;;
67640;SDS011;54434;50.096;20.082;2022-10-15T10:38:00;11.70;;;7.90;;
67640;SDS011;54434;50.096;20.082;2022-10-15T10:40:37;14.10;;;7.70;;
67640;SDS011;54434;50.096;20.082;2022-10-15T10:43:24;12.30;;;8.30;;
67640;SDS011;54434;50.096;20.082;2022-10-15T10:46:03;10.50;;;7.20;;
67640;SDS011;54434;50.096;20.082;2022-10-15T10:48:53;12.30;;;7.20;;
67640;SDS011;54434;50.096;20.082;2022-10-15T10:51:29;13.70;;;7.50;;
67640;SDS011;54434;50.096;20.082;2022-10-15T10:54:08;11.50;;;7.60;;
67640;SDS011;54434;50.096;20.082;2022-10-15T10:56:47;16.70;;;8.30;;
67640;SDS011;54434;50.096;20.082;2022-10-15T10:59:29;13.00;;;7.70;;
67640;SDS011;54434;50.096;20.082;2022-10-15T11:02:11;13.30;;;7.40;;
67640;SDS011;54434;50.096;20.082;2022-10-15T11:04:47;10.90;;;7.80;;
67640;SDS011;54434;50.096;20.082;2022-10-15T11:07:26;14.60;;;7.70;;
67640;SDS011;54434;50.096;20.082;2022-10-15T11:10:15;11.60;;;6.90;;
67640;SDS011;54434;50.096;20.082;2022-10-15T11:13:14;12.50;;;7.30;;
67640;SDS011;54434;50.096;20.082;2022-10-15T11:16:09;11.30;;;6.90;;
67640;SDS011;54434;50.096;20.082;2022-10-15T11:19:07;13.60;;;6.90;;
67640;SDS011;54434;50.096;20.082;2022-10-15T11:22:30;11.60;;;6.70;;
67640;SDS011;54434;50.096;20.082;2022-10-15T11:25:26;9.40;;;6.10;;
67640;SDS011;54434;50.096;20.082;2022-10-15T11:28:28;11.30;;;7.00;;
67640;SDS011;54434;50.096;20.082;2022-10-15T11:31:25;10.50;;;6.00;;
67640;SDS011;54434;50.096;20.082;2022-10-15T11:34:38;10.90;;;6.40;;
67640;SDS011;54434;50.096;20.082;2022-10-15T11:37:33;12.00;;;5.70;;
67640;SDS011;54434;50.096;20.082;2022-10-15T11:43:15;10.00;;;6.20;;
67640;SDS011;54434;50.096;20.082;2022-10-15T11:46:04;13.70;;;6.90;;
67640;SDS011;54434;50.096;20.082;2022-10-15T11:48:56;12.50;;;6.10;;
67640;SDS011;54434;50.096;20.082;2022-10-15T11:52:04;11.10;;;6.40;;
67640;SDS011;54434;50.096;20.082;2022-10-15T11:55:00;8.80;;;6.20;;
67640;SDS011;54434;50.096;20.082;2022-10-15T11:57:43;11.50;;;6.30;;
67640;SDS011;54434;50.096;20.082;2022-10-15T12:00:32;11.10;;;6.30;;
67640;SDS011;54434;50.096;20.082;2022-10-15T12:03:17;8.80;;;5.80;;
67640;SDS011;54434;50.096;20.082;2022-10-15T12:06:00;10.20;;;6.60;;
67640;SDS011;54434;50.096;20.082;2022-10-15T12:08:41;10.50;;;6.40;;
67640;SDS011;54434;50.096;20.082;2022-10-15T12:11:29;11.80;;;7.00;;
67640;SDS011;54434;50.096;20.082;2022-10-15T12:14:26;10.80;;;6.00;;
67640;SDS011;54434;50.096;20.082;2022-10-15T12:17:15;13.50;;;6.90;;
67640;SDS011;54434;50.096;20.082;2022-10-15T12:19:59;10.70;;;6.70;;
67640;SDS011;54434;50.096;20.082;2022-10-15T12:22:57;11.10;;;7.10;;
67640;SDS011;54434;50.096;20.082;2022-10-15T12:25:46;12.80;;;6.40;;
67640;SDS011;54434;50.096;20.082;2022-10-15T12:28:26;13.10;;;6.80;;
67640;SDS011;54434;50.096;20.082;2022-10-15T12:31:06;10.70;;;6.50;;
67640;SDS011;54434;50.096;20.082;2022-10-15T12:33:49;12.00;;;6.40;;
67640;SDS011;54434;50.096;20.082;2022-10-15T12:36:28;11.50;;;6.70;;
67640;SDS011;54434;50.096;20.082;2022-10-15T12:39:14;11.00;;;7.20;;
67640;SDS011;54434;50.096;20.082;2022-10-15T12:42:27;10.30;;;6.60;;
67640;SDS011;54434;50.096;20.082;2022-10-15T12:45:16;11.40;;;6.50;;
67640;SDS011;54434;50.096;20.082;2022-10-15T12:48:17;9.60;;;6.90;;
67640;SDS011;54434;50.096;20.082;2022-10-15T12:54:38;10.50;;;6.50;;
67640;SDS011;54434;50.096;20.082;2022-10-15T12:57:57;10.00;;;6.30;;
67640;SDS011;54434;50.096;20.082;2022-10-15T13:00:42;11.10;;;6.10;;
67640;SDS011;54434;50.096;20.082;2022-10-15T13:03:36;9.90;;;6.00;;
67640;SDS011;54434;50.096;20.082;2022-10-15T13:06:30;10.60;;;6.40;;
67640;SDS011;54434;50.096;20.082;2022-10-15T13:09:29;10.20;;;5.90;;
67640;SDS011;54434;50.096;20.082;2022-10-15T13:12:15;10.60;;;6.00;;
67640;SDS011;54434;50.096;20.082;2022-10-15T13:15:09;10.30;;;6.90;;
67640;SDS011;54434;50.096;20.082;2022-10-15T13:17:50;9.00;;;5.90;;
67640;SDS011;54434;50.096;20.082;2022-10-15T13:20:34;9.70;;;5.70;;
67640;SDS011;54434;50.096;20.082;2022-10-15T13:23:20;8.30;;;5.20;;
67640;SDS011;54434;50.096;20.082;2022-10-15T13:26:21;10.40;;;5.80;;
67640;SDS011;54434;50.096;20.082;2022-10-15T13:29:00;7.90;;;5.20;;
67640;SDS011;54434;50.096;20.082;2022-10-15T13:31:37;11.30;;;6.10;;
67640;SDS011;54434;50.096;20.082;2022-10-15T13:34:26;11.80;;;6.80;;
67640;SDS011;54434;50.096;20.082;2022-10-15T13:37:04;9.70;;;5.90;;
67640;SDS011;54434;50.096;20.082;2022-10-15T13:39:52;10.90;;;6.00;;
67640;SDS011;54434;50.096;20.082;2022-10-15T13:42:29;11.30;;;6.00;;
67640;SDS011;54434;50.096;20.082;2022-10-15T13:45:16;9.70;;;5.10;;
67640;SDS011;54434;50.096;20.082;2022-10-15T13:47:54;11.90;;;5.90;;
67640;SDS011;54434;50.096;20.082;2022-10-15T13:50:31;10.60;;;5.20;;
67640;SDS011;54434;50.096;20.082;2022-10-15T13:53:20;11.80;;;6.60;;
67640;SDS011;54434;50.096;20.082;2022-10-15T13:56:03;9.40;;;5.40;;
67640;SDS011;54434;50.096;20.082;2022-10-15T13:58:50;10.50;;;5.40;;
67640;SDS011;54434;50.096;20.082;2022-10-15T14:01:29;8.50;;;5.10;;
67640;SDS011;54434;50.096;20.082;2022-10-15T14:04:18;8.60;;;5.00;;
67640;SDS011;54434;50.096;20.082;2022-10-15T14:06:58;11.20;;;5.70;;
67640;SDS011;54434;50.096;20.082;2022-10-15T14:09:37;9.70;;;5.00;;
67640;SDS011;54434;50.096;20.082;2022-10-15T14:12:14;10.60;;;5.30;;
67640;SDS011;54434;50.096;20.082;2022-10-15T14:14:50;8.80;;;4.80;;
67640;SDS011;54434;50.096;20.082;2022-10-15T14:17:27;10.40;;;5.10;;
67640;SDS011;54434;50.096;20.082;2022-10-15T14:20:09;8.90;;;5.20;;
67640;SDS011;54434;50.096;20.082;2022-10-15T14:23:00;10.20;;;5.50;;
67640;SDS011;54434;50.096;20.082;2022-10-15T14:25:36;10.70;;;5.50;;
67640;SDS011;54434;50.096;20.082;2022-10-15T14:28:21;12.90;;;6.20;;
67640;SDS011;54434;50.096;20.082;2022-10-15T14:31:00;11.30;;;6.30;;
67640;SDS011;54434;50.096;20.082;2022-10-15T14:33:44;12.10;;;7.00;;
67640;SDS011;54434;50.096;20.082;2022-10-15T14:36:29;9.70;;;6.40;;
67640;SDS011;54434;50.096;20.082;2022-10-15T14:39:30;9.80;;;5.30;;
67640;SDS011;54434;50.096;20.082;2022-10-15T14:42:29;9.20;;;5.30;;
67640;SDS011;54434;50.096;20.082;2022-10-15T14:45:21;9.40;;;5.30;;
67640;SDS011;54434;50.096;20.082;2022-10-15T14:48:06;11.50;;;5.30;;
67640;SDS011;54434;50.096;20.082;2022-10-15T14:50:45;12.10;;;5.50;;
67640;SDS011;54434;50.096;20.082;2022-10-15T14:53:25;9.30;;;5.30;;
67640;SDS011;54434;50.096;20.082;2022-10-15T14:56:07;9.10;;;5.30;;
67640;SDS011;54434;50.096;20.082;2022-10-15T14:58:52;17.20;;;9.50;;
67640;SDS011;54434;50.096;20.082;2022-10-15T15:01:29;9.70;;;6.30;;
67640;SDS011;54434;50.096;20.082;2022-10-15T15:04:34;9.20;;;5.00;;
67640;SDS011;54434;50.096;20.082;2022-10-15T15:07:20;10.30;;;5.30;;
67640;SDS011;54434;50.096;20.082;2022-10-15T15:09:56;10.40;;;5.20;;
67640;SDS011;54434;50.096;20.082;2022-10-15T15:12:32;11.00;;;5.10;;
67640;SDS011;54434;50.096;20.082;2022-10-15T15:15:15;9.30;;;5.10;;
67640;SDS011;54434;50.096;20.082;2022-10-15T15:17:54;10.70;;;6.00;;
67640;SDS011;54434;50.096;20.082;2022-10-15T15:20:30;11.00;;;5.80;;
67640;SDS011;54434;50.096;20.082;2022-10-15T15:23:08;12.50;;;5.60;;
67640;SDS011;54434;50.096;20.082;2022-10-15T15:25:47;12.60;;;5.60;;
67640;SDS011;54434;50.096;20.082;2022-10-15T15:28:26;9.50;;;5.70;;
67640;SDS011;54434;50.096;20.082;2022-10-15T15:31:05;10.70;;;5.40;;
67640;SDS011;54434;50.096;20.082;2022-10-15T15:33:46;34.20;;;17.00;;
67640;SDS011;54434;50.096;20.082;2022-10-15T15:36:21;14.10;;;6.70;;
67640;SDS011;54434;50.096;20.082;2022-10-15T15:38:58;10.60;;;5.80;;
67640;SDS011;54434;50.096;20.082;2022-10-15T15:41:33;9.60;;;5.80;;
67640;SDS011;54434;50.096;20.082;2022-10-15T15:44:13;11.80;;;5.50;;
67640;SDS011;54434;50.096;20.082;2022-10-15T15:46:48;11.90;;;5.80;;
67640;SDS011;54434;50.096;20.082;2022-10-15T15:49:27;10.10;;;5.90;;